createdAt,value
2023-04-27T00:00:10.197Z,1003.27
2023-04-27T00:05:54.759Z,1003.25
2023-04-27T00:11:39.592Z,1003.18
2023-04-27T00:17:23.904Z,1003.21
2023-04-27T00:23:08.237Z,1003.17
2023-04-27T00:28:52.430Z,1003.09
2023-04-27T00:34:36.698Z,1003.06
2023-04-27T00:40:21.382Z,1003
2023-04-27T00:46:05.769Z,1003.05
2023-04-27T00:51:50.125Z,1003.08
2023-04-27T00:57:34.844Z,1003.1
2023-04-27T01:03:19.301Z,1003
2023-04-27T01:09:06.615Z,1002.97
2023-04-27T01:14:51.229Z,1002.96
2023-04-27T01:20:35.404Z,1002.94
2023-04-27T01:26:19.609Z,1002.9
2023-04-27T01:32:03.746Z,1002.95
2023-04-27T01:37:48.818Z,1002.93
2023-04-27T01:43:32.956Z,1002.93
2023-04-27T01:49:18.446Z,1002.88
2023-04-27T01:55:02.845Z,1002.88
2023-04-27T02:00:47.054Z,1002.86
2023-04-27T02:06:31.203Z,1002.89
2023-04-27T02:12:15.492Z,1002.79
2023-04-27T02:17:59.732Z,1002.86
2023-04-27T02:23:43.941Z,1002.82
2023-04-27T02:29:30.965Z,1002.79
2023-04-27T02:35:16.298Z,1002.78
2023-04-27T02:41:00.480Z,1002.77
2023-04-27T02:46:44.695Z,1002.73
2023-04-27T02:52:28.983Z,1002.78
2023-04-27T02:58:13.151Z,1002.69
2023-04-27T03:03:58.493Z,1002.72
2023-04-27T03:09:43.280Z,1002.8
2023-04-27T03:15:27.492Z,1002.81
2023-04-27T03:21:13.411Z,1002.92
2023-04-27T03:26:57.674Z,1002.84
2023-04-27T03:32:41.991Z,1002.79
2023-04-27T03:38:29.996Z,1002.81
2023-04-27T03:44:14.129Z,1002.81
2023-04-27T03:49:58.397Z,1002.82
2023-04-27T03:55:43.533Z,1002.82
2023-04-27T04:01:27.605Z,1002.84
2023-04-27T04:07:12.652Z,1002.79
2023-04-27T04:12:56.803Z,1002.84
2023-04-27T04:18:40.820Z,1002.84
2023-04-27T04:24:25.283Z,1002.94
2023-04-27T04:30:10.200Z,1002.9
2023-04-27T04:35:54.401Z,1002.92
2023-04-27T04:41:39.504Z,1002.91
2023-04-27T04:47:23.852Z,1002.91
2023-04-27T04:53:08.466Z,1002.99
2023-04-27T04:58:52.802Z,1002.98
2023-04-27T05:04:37.218Z,1003
2023-04-27T05:10:21.845Z,1003.08
2023-04-27T05:16:08.979Z,1003.2
2023-04-27T05:21:53.242Z,1003.27
2023-04-27T05:27:37.368Z,1003.23
2023-04-27T05:33:21.769Z,1003.21
2023-04-27T05:39:05.920Z,1003.29
2023-04-27T05:44:50.036Z,1003.35
2023-04-27T05:50:34.183Z,1003.37
2023-04-27T05:56:18.374Z,1003.45
2023-04-27T06:02:02.913Z,1003.41
2023-04-27T06:07:47.252Z,1003.43
2023-04-27T06:13:31.749Z,1003.49
2023-04-27T06:19:16.629Z,1003.4
2023-04-27T06:25:01.785Z,1003.41
2023-04-27T06:30:46.056Z,1003.53
2023-04-27T06:36:32.134Z,1003.43
2023-04-27T06:42:16.352Z,1003.35
2023-04-27T06:48:00.472Z,1003.34
2023-04-27T06:53:44.737Z,1003.37
2023-04-27T06:59:30.164Z,1003.24
2023-04-27T07:05:14.376Z,1003.1
2023-04-27T07:10:58.467Z,1003.05
2023-04-27T07:16:43.860Z,1003.11
2023-04-27T07:22:27.986Z,1003.15
2023-04-27T07:28:12.243Z,1003.2
2023-04-27T07:33:56.394Z,1003.26
2023-04-27T07:39:40.663Z,1003.35
2023-04-27T07:45:25.063Z,1003.16
2023-04-27T07:51:10.225Z,1003.22
2023-04-27T07:56:54.702Z,1003.13
2023-04-27T08:02:39.178Z,1003.04
2023-04-27T08:08:23.835Z,1003.15
2023-04-27T08:14:17.179Z,1003.17
2023-04-27T08:20:01.276Z,1003.15
2023-04-27T08:25:45.509Z,1003.1
2023-04-27T08:31:29.685Z,1003.13
2023-04-27T08:37:14.005Z,1002.99
2023-04-27T08:43:01.242Z,1003.08
2023-04-27T08:48:45.243Z,1003.09
2023-04-27T08:54:29.581Z,1003.06
2023-04-27T09:00:14.978Z,1002.88
2023-04-27T09:06:05.486Z,1002.86
2023-04-27T09:11:50.541Z,1002.93
2023-04-27T09:17:35.217Z,1002.93
2023-04-27T09:23:31.188Z,1003.01
2023-04-27T09:29:15.860Z,1003
2023-04-27T09:35:00.175Z,1002.93
2023-04-27T09:40:44.307Z,1002.83
2023-04-27T09:46:29.545Z,1002.92
2023-04-27T09:52:13.886Z,1002.85
2023-04-27T09:58:04.003Z,1002.7
2023-04-27T10:03:53.113Z,1002.73
2023-04-27T10:09:41.645Z,1002.76
2023-04-27T10:15:26.934Z,1002.63
2023-04-27T10:21:17.258Z,1002.58
2023-04-27T10:27:05.599Z,1002.61
2023-04-27T10:32:56.098Z,1002.52
2023-04-27T10:38:41.295Z,1002.46
2023-04-27T10:44:26.968Z,1002.4
2023-04-27T10:50:12.227Z,1002.48
2023-04-27T10:55:59.776Z,1002.48
2023-04-27T11:01:44.078Z,1002.43
2023-04-27T11:07:29.741Z,1002.35
2023-04-27T11:13:15.159Z,1002.26
2023-04-27T11:19:03.960Z,1002.13
2023-04-27T11:24:53.084Z,1002.09
2023-04-27T11:30:37.294Z,1002.08
2023-04-27T11:36:23.662Z,1002
2023-04-27T11:42:21.038Z,1001.95
2023-04-27T11:48:05.764Z,1001.97
2023-04-27T11:53:50.210Z,1001.99
2023-04-27T11:59:34.491Z,1001.93
2023-04-27T12:05:18.970Z,1001.89
2023-04-27T12:11:04.154Z,1001.87
2023-04-27T12:16:48.680Z,1001.85
2023-04-27T12:22:33.180Z,1001.79
2023-04-27T12:28:17.381Z,1001.77
2023-04-27T12:34:02.447Z,1001.76
2023-04-27T12:39:46.427Z,1001.55
2023-04-27T12:45:30.682Z,1001.5
2023-04-27T12:51:14.865Z,1001.47
2023-04-27T12:56:59.018Z,1001.37
2023-04-27T13:02:44.614Z,1001.33
2023-04-27T13:08:28.942Z,1001.31
2023-04-27T13:14:14.179Z,1001.25
2023-04-27T13:19:59.255Z,1001.2
2023-04-27T13:25:43.601Z,1001.09
2023-04-27T13:31:27.901Z,1001.07
2023-04-27T13:37:12.682Z,1001.12
2023-04-27T13:43:02.411Z,1001.04
2023-04-27T13:48:47.190Z,1000.96
2023-04-27T13:54:31.972Z,1000.92
2023-04-27T14:00:18.143Z,1000.86
2023-04-27T14:06:02.800Z,1000.85
2023-04-27T14:11:56.666Z,1000.82
2023-04-27T14:17:42.032Z,1000.73
2023-04-27T14:23:27.153Z,1000.64
2023-04-27T14:29:12.243Z,1000.59
2023-04-27T14:34:57.601Z,1000.55
2023-04-27T14:40:42.319Z,1000.51
2023-04-27T14:46:27.101Z,1000.41
2023-04-27T14:52:12.190Z,1000.38
2023-04-27T14:57:58.107Z,1000.43
2023-04-27T15:03:43.391Z,1000.42
2023-04-27T15:09:28.741Z,1000.42
2023-04-27T15:15:13.930Z,1000.37
2023-04-27T15:21:00.254Z,1000.24
2023-04-27T15:26:47.203Z,1000.21
2023-04-27T15:32:33.220Z,1000.04
2023-04-27T15:38:18.146Z,999.92
2023-04-27T15:44:02.871Z,999.93
2023-04-27T15:49:57.264Z,999.76
2023-04-27T15:55:43.192Z,999.72
2023-04-27T16:01:29.270Z,999.6
2023-04-27T16:07:14.413Z,999.46
2023-04-27T16:12:59.306Z,999.46
2023-04-27T16:18:44.017Z,999.36
2023-04-27T16:24:30.944Z,999.25
2023-04-27T16:30:16.116Z,999.15
2023-04-27T16:36:00.872Z,999.06
2023-04-27T16:41:46.182Z,999.03
2023-04-27T16:47:30.938Z,999.05
2023-04-27T16:53:15.902Z,999.02
2023-04-27T16:59:01.099Z,998.95
2023-04-27T17:04:46.027Z,998.81
2023-04-27T17:10:31.386Z,998.65
2023-04-27T17:16:16.436Z,998.69
2023-04-27T17:22:01.840Z,998.73
2023-04-27T17:27:46.588Z,998.84
2023-04-27T17:33:31.421Z,998.74
2023-04-27T17:39:16.673Z,998.66
2023-04-27T17:45:07.121Z,998.69
2023-04-27T17:50:52.297Z,998.59
2023-04-27T17:56:37.166Z,998.71
2023-04-27T18:02:22.278Z,998.78
2023-04-27T18:08:07.217Z,998.74
2023-04-27T18:13:52.029Z,998.68
2023-04-27T18:19:36.678Z,998.67
2023-04-27T18:25:21.413Z,998.62
2023-04-27T18:31:11.175Z,998.7
2023-04-27T18:36:55.962Z,998.78
2023-04-27T18:42:40.977Z,998.89
2023-04-27T18:48:26.038Z,998.87
2023-04-27T18:54:11.050Z,998.94
2023-04-27T18:59:55.853Z,999.01
2023-04-27T19:05:40.847Z,999.02
2023-04-27T19:11:25.860Z,999.01
2023-04-27T19:17:10.882Z,998.9
2023-04-27T19:22:55.686Z,998.88
2023-04-27T19:28:40.657Z,998.86
2023-04-27T19:34:25.476Z,998.86
2023-04-27T19:40:11.596Z,998.75
2023-04-27T19:45:56.734Z,998.67
2023-04-27T19:51:42.623Z,998.67
2023-04-27T19:57:28.438Z,998.55
2023-04-27T20:03:14.776Z,998.6
2023-04-27T20:09:00.234Z,998.43
2023-04-27T20:14:45.107Z,998.53
2023-04-27T20:20:30.048Z,998.51
2023-04-27T20:26:14.905Z,998.51
2023-04-27T20:31:59.884Z,998.47
2023-04-27T20:37:45.073Z,998.35
2023-04-27T20:43:30.112Z,998.32
2023-04-27T20:49:28.119Z,998.25
2023-04-27T20:55:18.271Z,998.13
2023-04-27T21:01:03.579Z,998.06
2023-04-27T21:06:48.389Z,997.97
2023-04-27T21:12:34.360Z,997.76
2023-04-27T21:24:14.671Z,997.39
2023-04-27T21:29:59.572Z,997.33
2023-04-27T21:35:44.234Z,997.13
2023-04-27T21:41:29.055Z,997.14
2023-04-27T21:47:14.105Z,997.13
2023-04-27T21:52:59.100Z,997.04
2023-04-27T21:58:43.771Z,997.08
2023-04-27T22:04:29.037Z,996.9
2023-04-27T22:10:15.049Z,996.85
2023-04-27T22:16:00.101Z,996.93
2023-04-27T22:21:45.121Z,996.86
2023-04-27T22:27:38.705Z,996.81
2023-04-27T22:33:28.726Z,996.6
2023-04-27T22:39:13.469Z,996.63
2023-04-27T22:44:58.151Z,996.56
2023-04-27T22:50:43.045Z,996.5
2023-04-27T22:56:27.946Z,996.41
2023-04-27T23:02:12.880Z,996.47
2023-04-27T23:07:57.607Z,996.52
2023-04-27T23:13:42.319Z,996.57
2023-04-27T23:19:26.894Z,996.56
2023-04-27T23:25:12.087Z,996.53
2023-04-27T23:30:57.323Z,996.52
2023-04-27T23:36:42.028Z,996.54
2023-04-27T23:42:27.048Z,996.5
2023-04-27T23:48:21.938Z,996.38
2023-04-27T23:54:06.886Z,996.28
2023-04-27T23:59:51.967Z,996.14
